KSMX/SMX METAR and TAF weather

Enter ICAO airport designator
Station Type Date Time Source
KSMX METAR 2024/04/17 17:51 UTC NOAA

KSMX 171751Z 00000KT 10SM SCT200 21/13 A3002 RMK AO2 SLP168 T02060133 10211 20078 53006


Station Type Date Time Source
KSMX Decoded METAR 2024/04/17 17:51 UTC NOAA

SANTA MARIA PUBLIC AIRPORT, CA, United States (KSMX) 34-54N 120-28W 74M
Apr 17, 2024 - 01:51 PM EDT / 2024.04.17 1751 UTC
Wind: Calm:0
Visibility: 10 mile(s):0
Sky conditions: partly cloudy
Temperature: 69.1 F (20.6 C)
Dew Point: 55.9 F (13.3 C)
Relative Humidity: 62%
Pressure (altimeter): 30.02 in. Hg (1016 hPa)
Pressure tendency: 0.02 inches (0.6 hPa) higher than three hours ago
ob: KSMX 171751Z 00000KT 10SM SCT200 21/13 A3002 RMK AO2 SLP168 T02060133 10211 20078 53006
cycle: 18

Station Type Date Time Source
KSMX TAF 2024/04/17 18:40 UTC NOAA